KJCT

Kimble County Airport

Junction, Texas, USA
METAR KJCT 161351Z AUTO 24003KT 10SM SCT070 02/01 A3012 RMK AO2 SLP190 T00220006
Observed Flight Rules
Dec-16 @ 13:51 UTC (56 minutes ago) Visual Flight Rules
Wind Visibility Clouds
240° at 3 knots 10 miles
  • Scattered at 7,000' AGL
Temperatures Readings
Current 2°C / 36°F
Dewpoint 1°C / 34°F
Humidity 93%
Altimeter 30.12" Hg
Pressure 1019 hPa
Elevation 522
METAR KJCT 161351Z AUTO 24003KT 10SM SCT070 02/01 A3012 RMK AO2 SLP190 T00220006
Observed Flight Rules
Dec-16 @ 13:51 UTC
(56 minutes ago)
VFR
Wind Visibility
240° at 3 knots 10 miles
Clouds
  • Scattered at 7,000' AGL
Temperature Dewpoint
2°C / 36°F 1°C / 34°F
Humidity Altimeter Pressure
93% 30.12" Hg 1019 hPa